sensor_id;sensor_type;location;lat;lon;timestamp;P1;durP1;ratioP1;P2;durP2;ratioP2
69779;SDS011;57052;55.602;38.096;2023-11-19T09:41:15;10.00;;;4.32;;
69779;SDS011;57052;55.602;38.096;2023-11-19T09:43:41;11.35;;;5.63;;
69779;SDS011;57052;55.602;38.096;2023-11-19T09:46:11;14.02;;;5.40;;
69779;SDS011;57052;55.602;38.096;2023-11-19T09:48:39;15.50;;;6.07;;
69779;SDS011;57052;55.602;38.096;2023-11-19T09:51:08;16.02;;;6.07;;
69779;SDS011;57052;55.602;38.096;2023-11-19T09:53:36;15.07;;;5.75;;
69779;SDS011;57052;55.602;38.096;2023-11-19T09:56:05;16.52;;;6.60;;
69779;SDS011;57052;55.602;38.096;2023-11-19T09:58:34;15.85;;;6.47;;
69779;SDS011;57052;55.602;38.096;2023-11-19T10:01:00;17.52;;;6.75;;
69779;SDS011;57052;55.602;38.096;2023-11-19T10:03:33;16.08;;;6.25;;
69779;SDS011;57052;55.602;38.096;2023-11-19T10:06:06;15.27;;;6.40;;
69779;SDS011;57052;55.602;38.096;2023-11-19T10:08:33;15.30;;;6.55;;
69779;SDS011;57052;55.602;38.096;2023-11-19T10:10:59;13.98;;;6.28;;
69779;SDS011;57052;55.602;38.096;2023-11-19T10:13:27;13.43;;;6.82;;
69779;SDS011;57052;55.602;38.096;2023-11-19T10:15:54;13.13;;;6.35;;
69779;SDS011;57052;55.602;38.096;2023-11-19T10:18:40;17.25;;;7.00;;
69779;SDS011;57052;55.602;38.096;2023-11-19T10:21:12;14.07;;;6.38;;
69779;SDS011;57052;55.602;38.096;2023-11-19T10:23:48;14.95;;;6.75;;
69779;SDS011;57052;55.602;38.096;2023-11-19T10:26:25;14.60;;;7.25;;
69779;SDS011;57052;55.602;38.096;2023-11-19T10:28:51;15.55;;;7.50;;
69779;SDS011;57052;55.602;38.096;2023-11-19T10:31:18;15.20;;;7.25;;
69779;SDS011;57052;55.602;38.096;2023-11-19T10:33:45;21.25;;;7.97;;
69779;SDS011;57052;55.602;38.096;2023-11-19T10:36:12;13.88;;;6.50;;
69779;SDS011;57052;55.602;38.096;2023-11-19T10:38:39;15.90;;;6.25;;
69779;SDS011;57052;55.602;38.096;2023-11-19T10:41:05;16.55;;;7.57;;
69779;SDS011;57052;55.602;38.096;2023-11-19T10:43:43;14.82;;;6.93;;
69779;SDS011;57052;55.602;38.096;2023-11-19T10:46:12;17.65;;;6.82;;
69779;SDS011;57052;55.602;38.096;2023-11-19T10:48:40;13.48;;;6.13;;
69779;SDS011;57052;55.602;38.096;2023-11-19T10:51:06;17.25;;;7.00;;
69779;SDS011;57052;55.602;38.096;2023-11-19T10:53:36;12.05;;;6.30;;
69779;SDS011;57052;55.602;38.096;2023-11-19T10:56:06;12.43;;;6.10;;
69779;SDS011;57052;55.602;38.096;2023-11-19T10:58:36;14.68;;;7.40;;
69779;SDS011;57052;55.602;38.096;2023-11-19T11:01:09;18.40;;;7.00;;
69779;SDS011;57052;55.602;38.096;2023-11-19T11:03:40;18.58;;;6.68;;
69779;SDS011;57052;55.602;38.096;2023-11-19T11:06:08;14.93;;;6.75;;
69779;SDS011;57052;55.602;38.096;2023-11-19T11:08:38;14.75;;;6.60;;
69779;SDS011;57052;55.602;38.096;2023-11-19T11:11:05;12.70;;;6.45;;
69779;SDS011;57052;55.602;38.096;2023-11-19T11:13:35;13.70;;;6.60;;
69779;SDS011;57052;55.602;38.096;2023-11-19T11:16:03;13.43;;;5.97;;
69779;SDS011;57052;55.602;38.096;2023-11-19T11:18:32;13.23;;;6.65;;
69779;SDS011;57052;55.602;38.096;2023-11-19T11:21:00;14.65;;;6.65;;
69779;SDS011;57052;55.602;38.096;2023-11-19T11:28:51;16.23;;;6.80;;
69779;SDS011;57052;55.602;38.096;2023-11-19T11:39:49;15.25;;;6.00;;
69779;SDS011;57052;55.602;38.096;2023-11-19T11:55:37;13.27;;;6.07;;
69779;SDS011;57052;55.602;38.096;2023-11-19T11:58:20;11.93;;;5.88;;
69779;SDS011;57052;55.602;38.096;2023-11-19T12:00:59;10.57;;;5.13;;
69779;SDS011;57052;55.602;38.096;2023-11-19T12:03:27;12.48;;;6.13;;
69779;SDS011;57052;55.602;38.096;2023-11-19T12:05:54;13.35;;;5.80;;
69779;SDS011;57052;55.602;38.096;2023-11-19T12:08:20;13.13;;;5.90;;
69779;SDS011;57052;55.602;38.096;2023-11-19T12:10:51;12.30;;;5.65;;
69779;SDS011;57052;55.602;38.096;2023-11-19T12:13:18;13.75;;;6.68;;
69779;SDS011;57052;55.602;38.096;2023-11-19T12:18:23;11.82;;;6.43;;
69779;SDS011;57052;55.602;38.096;2023-11-19T12:20:49;15.88;;;7.40;;
69779;SDS011;57052;55.602;38.096;2023-11-19T12:23:15;18.40;;;7.72;;
69779;SDS011;57052;55.602;38.096;2023-11-19T12:25:41;23.85;;;10.07;;
69779;SDS011;57052;55.602;38.096;2023-11-19T12:28:11;19.10;;;9.13;;
69779;SDS011;57052;55.602;38.096;2023-11-19T12:30:38;23.25;;;8.98;;
69779;SDS011;57052;55.602;38.096;2023-11-19T12:33:07;19.20;;;8.32;;
69779;SDS011;57052;55.602;38.096;2023-11-19T12:35:46;19.25;;;8.10;;
69779;SDS011;57052;55.602;38.096;2023-11-19T12:38:22;18.40;;;8.48;;
69779;SDS011;57052;55.602;38.096;2023-11-19T12:43:30;14.75;;;7.20;;
69779;SDS011;57052;55.602;38.096;2023-11-19T12:46:03;16.15;;;6.93;;
69779;SDS011;57052;55.602;38.096;2023-11-19T12:48:42;15.35;;;7.03;;
69779;SDS011;57052;55.602;38.096;2023-11-19T12:51:11;18.58;;;7.28;;
69779;SDS011;57052;55.602;38.096;2023-11-19T12:53:49;15.20;;;7.53;;
69779;SDS011;57052;55.602;38.096;2023-11-19T12:56:23;16.48;;;6.70;;
69779;SDS011;57052;55.602;38.096;2023-11-19T12:58:50;24.13;;;10.90;;
69779;SDS011;57052;55.602;38.096;2023-11-19T13:01:16;15.25;;;6.40;;
69779;SDS011;57052;55.602;38.096;2023-11-19T13:03:44;15.07;;;7.28;;
69779;SDS011;57052;55.602;38.096;2023-11-19T13:06:13;18.48;;;6.80;;
69779;SDS011;57052;55.602;38.096;2023-11-19T13:08:41;16.45;;;6.80;;
69779;SDS011;57052;55.602;38.096;2023-11-19T13:11:10;13.60;;;6.35;;
69779;SDS011;57052;55.602;38.096;2023-11-19T13:13:57;13.43;;;6.45;;
69779;SDS011;57052;55.602;38.096;2023-11-19T13:16:24;12.07;;;6.55;;
69779;SDS011;57052;55.602;38.096;2023-11-19T13:18:51;14.60;;;6.80;;
69779;SDS011;57052;55.602;38.096;2023-11-19T13:21:17;15.07;;;6.85;;
69779;SDS011;57052;55.602;38.096;2023-11-19T13:23:43;15.35;;;7.10;;
69779;SDS011;57052;55.602;38.096;2023-11-19T13:26:09;13.95;;;6.30;;
69779;SDS011;57052;55.602;38.096;2023-11-19T13:28:36;14.32;;;6.50;;
69779;SDS011;57052;55.602;38.096;2023-11-19T13:31:02;11.90;;;6.93;;
69779;SDS011;57052;55.602;38.096;2023-11-19T13:33:28;12.52;;;6.20;;
69779;SDS011;57052;55.602;38.096;2023-11-19T13:35:54;15.82;;;7.20;;
69779;SDS011;57052;55.602;38.096;2023-11-19T13:38:20;13.93;;;6.97;;
69779;SDS011;57052;55.602;38.096;2023-11-19T13:40:46;12.65;;;6.20;;
69779;SDS011;57052;55.602;38.096;2023-11-19T13:43:11;14.95;;;7.10;;
69779;SDS011;57052;55.602;38.096;2023-11-19T13:45:37;11.95;;;6.15;;
69779;SDS011;57052;55.602;38.096;2023-11-19T13:48:02;14.20;;;6.68;;
69779;SDS011;57052;55.602;38.096;2023-11-19T13:50:28;17.45;;;7.13;;
69779;SDS011;57052;55.602;38.096;2023-11-19T13:52:54;18.85;;;7.05;;
69779;SDS011;57052;55.602;38.096;2023-11-19T13:55:20;12.80;;;6.25;;
69779;SDS011;57052;55.602;38.096;2023-11-19T13:57:45;17.88;;;7.30;;
69779;SDS011;57052;55.602;38.096;2023-11-19T14:00:14;17.92;;;6.75;;
69779;SDS011;57052;55.602;38.096;2023-11-19T14:02:41;14.57;;;7.07;;
69779;SDS011;57052;55.602;38.096;2023-11-19T14:05:10;14.82;;;6.65;;
69779;SDS011;57052;55.602;38.096;2023-11-19T14:07:37;14.38;;;6.45;;
69779;SDS011;57052;55.602;38.096;2023-11-19T14:10:03;16.45;;;6.70;;
69779;SDS011;57052;55.602;38.096;2023-11-19T14:12:31;12.73;;;6.70;;
69779;SDS011;57052;55.602;38.096;2023-11-19T14:14:57;13.23;;;6.10;;
69779;SDS011;57052;55.602;38.096;2023-11-19T14:17:23;17.17;;;6.80;;
69779;SDS011;57052;55.602;38.096;2023-11-19T14:19:50;15.48;;;7.28;;
69779;SDS011;57052;55.602;38.096;2023-11-19T14:22:16;14.77;;;6.53;;
69779;SDS011;57052;55.602;38.096;2023-11-19T14:24:41;16.70;;;6.65;;
69779;SDS011;57052;55.602;38.096;2023-11-19T14:27:08;17.15;;;6.90;;
69779;SDS011;57052;55.602;38.096;2023-11-19T14:29:35;16.45;;;7.07;;
69779;SDS011;57052;55.602;38.096;2023-11-19T14:32:01;12.15;;;6.35;;
69779;SDS011;57052;55.602;38.096;2023-11-19T14:34:28;13.85;;;6.65;;
69779;SDS011;57052;55.602;38.096;2023-11-19T14:36:57;17.30;;;6.95;;
69779;SDS011;57052;55.602;38.096;2023-11-19T14:39:24;17.35;;;6.90;;
69779;SDS011;57052;55.602;38.096;2023-11-19T14:41:50;17.80;;;7.45;;
69779;SDS011;57052;55.602;38.096;2023-11-19T14:44:17;16.08;;;7.30;;
69779;SDS011;57052;55.602;38.096;2023-11-19T14:46:43;15.65;;;7.03;;
69779;SDS011;57052;55.602;38.096;2023-11-19T14:49:10;18.13;;;7.32;;
69779;SDS011;57052;55.602;38.096;2023-11-19T14:51:35;16.58;;;8.00;;
69779;SDS011;57052;55.602;38.096;2023-11-19T14:54:03;17.85;;;7.55;;
69779;SDS011;57052;55.602;38.096;2023-11-19T14:56:29;15.23;;;7.00;;
69779;SDS011;57052;55.602;38.096;2023-11-19T14:58:55;16.05;;;8.07;;
69779;SDS011;57052;55.602;38.096;2023-11-19T15:01:20;16.92;;;7.65;;
69779;SDS011;57052;55.602;38.096;2023-11-19T15:03:46;18.90;;;8.43;;
69779;SDS011;57052;55.602;38.096;2023-11-19T15:06:11;19.27;;;7.82;;
69779;SDS011;57052;55.602;38.096;2023-11-19T15:08:37;17.42;;;7.80;;
69779;SDS011;57052;55.602;38.096;2023-11-19T15:11:03;18.77;;;8.32;;
69779;SDS011;57052;55.602;38.096;2023-11-19T15:13:31;19.10;;;8.55;;
69779;SDS011;57052;55.602;38.096;2023-11-19T15:15:59;21.63;;;9.05;;
69779;SDS011;57052;55.602;38.096;2023-11-19T15:18:24;21.52;;;8.45;;
69779;SDS011;57052;55.602;38.096;2023-11-19T15:20:50;18.48;;;8.25;;
69779;SDS011;57052;55.602;38.096;2023-11-19T15:23:15;22.27;;;8.57;;
69779;SDS011;57052;55.602;38.096;2023-11-19T15:25:41;26.45;;;10.95;;
69779;SDS011;57052;55.602;38.096;2023-11-19T15:28:08;24.35;;;9.90;;
69779;SDS011;57052;55.602;38.096;2023-11-19T15:30:35;24.60;;;10.85;;
69779;SDS011;57052;55.602;38.096;2023-11-19T15:33:00;25.17;;;10.43;;
69779;SDS011;57052;55.602;38.096;2023-11-19T15:35:26;21.77;;;10.15;;
69779;SDS011;57052;55.602;38.096;2023-11-19T15:37:51;23.95;;;10.02;;
69779;SDS011;57052;55.602;38.096;2023-11-19T15:40:17;20.10;;;8.98;;
69779;SDS011;57052;55.602;38.096;2023-11-19T15:42:44;23.45;;;9.23;;
69779;SDS011;57052;55.602;38.096;2023-11-19T15:45:10;21.63;;;8.60;;
69779;SDS011;57052;55.602;38.096;2023-11-19T15:47:37;21.65;;;9.82;;
69779;SDS011;57052;55.602;38.096;2023-11-19T15:50:04;26.92;;;11.32;;
69779;SDS011;57052;55.602;38.096;2023-11-19T15:52:32;35.53;;;11.32;;
69779;SDS011;57052;55.602;38.096;2023-11-19T15:54:58;26.63;;;11.45;;
69779;SDS011;57052;55.602;38.096;2023-11-19T15:57:23;29.40;;;12.63;;
69779;SDS011;57052;55.602;38.096;2023-11-19T15:59:49;28.98;;;12.13;;
69779;SDS011;57052;55.602;38.096;2023-11-19T16:02:16;27.92;;;11.95;;
69779;SDS011;57052;55.602;38.096;2023-11-19T16:04:42;29.38;;;12.30;;
69779;SDS011;57052;55.602;38.096;2023-11-19T16:07:12;25.77;;;12.05;;
69779;SDS011;57052;55.602;38.096;2023-11-19T16:09:38;33.55;;;13.57;;
69779;SDS011;57052;55.602;38.096;2023-11-19T16:12:04;27.55;;;11.90;;
69779;SDS011;57052;55.602;38.096;2023-11-19T16:14:29;27.85;;;11.30;;
69779;SDS011;57052;55.602;38.096;2023-11-19T16:16:55;32.67;;;13.48;;
69779;SDS011;57052;55.602;38.096;2023-11-19T16:19:21;30.98;;;11.90;;
69779;SDS011;57052;55.602;38.096;2023-11-19T16:21:46;31.17;;;12.50;;
69779;SDS011;57052;55.602;38.096;2023-11-19T16:24:12;30.58;;;12.15;;
69779;SDS011;57052;55.602;38.096;2023-11-19T16:26:37;32.20;;;11.68;;
69779;SDS011;57052;55.602;38.096;2023-11-19T16:29:03;32.08;;;12.00;;
69779;SDS011;57052;55.602;38.096;2023-11-19T16:31:29;26.90;;;10.98;;
69779;SDS011;57052;55.602;38.096;2023-11-19T16:33:58;27.23;;;11.77;;
69779;SDS011;57052;55.602;38.096;2023-11-19T16:36:25;25.73;;;12.00;;
69779;SDS011;57052;55.602;38.096;2023-11-19T16:38:51;28.00;;;11.32;;
69779;SDS011;57052;55.602;38.096;2023-11-19T16:41:20;27.88;;;11.15;;
69779;SDS011;57052;55.602;38.096;2023-11-19T16:43:51;30.33;;;11.07;;
69779;SDS011;57052;55.602;38.096;2023-11-19T16:46:20;35.67;;;11.85;;
69779;SDS011;57052;55.602;38.096;2023-11-19T16:48:45;29.65;;;11.32;;
69779;SDS011;57052;55.602;38.096;2023-11-19T16:51:14;28.73;;;11.15;;
69779;SDS011;57052;55.602;38.096;2023-11-19T16:53:47;29.35;;;11.52;;
69779;SDS011;57052;55.602;38.096;2023-11-19T16:56:13;36.28;;;12.75;;
69779;SDS011;57052;55.602;38.096;2023-11-19T16:58:40;26.73;;;10.70;;
69779;SDS011;57052;55.602;38.096;2023-11-19T17:01:12;27.42;;;11.73;;
69779;SDS011;57052;55.602;38.096;2023-11-19T17:03:41;29.90;;;11.38;;
69779;SDS011;57052;55.602;38.096;2023-11-19T17:06:08;24.08;;;9.60;;
69779;SDS011;57052;55.602;38.096;2023-11-19T17:08:35;25.58;;;10.68;;
69779;SDS011;57052;55.602;38.096;2023-11-19T17:11:03;24.52;;;10.80;;
69779;SDS011;57052;55.602;38.096;2023-11-19T17:13:33;28.83;;;9.52;;
69779;SDS011;57052;55.602;38.096;2023-11-19T17:15:59;23.08;;;10.73;;
69779;SDS011;57052;55.602;38.096;2023-11-19T17:18:25;26.55;;;11.13;;
69779;SDS011;57052;55.602;38.096;2023-11-19T17:20:51;25.67;;;11.32;;
69779;SDS011;57052;55.602;38.096;2023-11-19T17:23:18;28.35;;;10.68;;
69779;SDS011;57052;55.602;38.096;2023-11-19T17:25:44;27.38;;;10.20;;
69779;SDS011;57052;55.602;38.096;2023-11-19T17:28:10;23.10;;;10.07;;
69779;SDS011;57052;55.602;38.096;2023-11-19T17:30:35;25.08;;;10.65;;
69779;SDS011;57052;55.602;38.096;2023-11-19T17:33:03;26.67;;;11.20;;
69779;SDS011;57052;55.602;38.096;2023-11-19T17:35:30;23.52;;;9.10;;
69779;SDS011;57052;55.602;38.096;2023-11-19T17:37:56;27.20;;;9.70;;
69779;SDS011;57052;55.602;38.096;2023-11-19T17:40:22;18.20;;;8.50;;
69779;SDS011;57052;55.602;38.096;2023-11-19T17:42:48;16.38;;;7.25;;
69779;SDS011;57052;55.602;38.096;2023-11-19T17:45:15;17.65;;;7.55;;
69779;SDS011;57052;55.602;38.096;2023-11-19T17:47:40;18.75;;;8.77;;
69779;SDS011;57052;55.602;38.096;2023-11-19T17:50:06;20.95;;;8.93;;
69779;SDS011;57052;55.602;38.096;2023-11-19T17:52:34;23.48;;;9.10;;
69779;SDS011;57052;55.602;38.096;2023-11-19T17:55:00;20.60;;;8.27;;
69779;SDS011;57052;55.602;38.096;2023-11-19T17:57:29;20.38;;;8.68;;
69779;SDS011;57052;55.602;38.096;2023-11-19T17:59:56;19.25;;;7.85;;
69779;SDS011;57052;55.602;38.096;2023-11-19T18:02:22;17.00;;;8.48;;
69779;SDS011;57052;55.602;38.096;2023-11-19T18:04:49;19.30;;;8.27;;
69779;SDS011;57052;55.602;38.096;2023-11-19T18:07:18;19.02;;;8.38;;
69779;SDS011;57052;55.602;38.096;2023-11-19T18:09:46;20.88;;;8.57;;
69779;SDS011;57052;55.602;38.096;2023-11-19T18:12:12;20.50;;;7.93;;
69779;SDS011;57052;55.602;38.096;2023-11-19T18:14:38;17.77;;;7.97;;
69779;SDS011;57052;55.602;38.096;2023-11-19T18:17:06;20.42;;;8.05;;
69779;SDS011;57052;55.602;38.096;2023-11-19T18:19:32;16.08;;;7.63;;
69779;SDS011;57052;55.602;38.096;2023-11-19T18:21:58;19.23;;;7.30;;
69779;SDS011;57052;55.602;38.096;2023-11-19T18:24:28;17.35;;;7.70;;
69779;SDS011;57052;55.602;38.096;2023-11-19T18:26:56;14.48;;;6.82;;
69779;SDS011;57052;55.602;38.096;2023-11-19T18:29:22;14.43;;;7.03;;
69779;SDS011;57052;55.602;38.096;2023-11-19T18:31:47;15.35;;;7.18;;
69779;SDS011;57052;55.602;38.096;2023-11-19T18:34:13;17.48;;;7.28;;
69779;SDS011;57052;55.602;38.096;2023-11-19T18:36:39;19.45;;;7.28;;
69779;SDS011;57052;55.602;38.096;2023-11-19T18:39:05;19.52;;;7.22;;
69779;SDS011;57052;55.602;38.096;2023-11-19T18:41:37;25.83;;;7.80;;
69779;SDS011;57052;55.602;38.096;2023-11-19T18:44:03;16.63;;;6.82;;
69779;SDS011;57052;55.602;38.096;2023-11-19T18:46:29;15.70;;;7.18;;
69779;SDS011;57052;55.602;38.096;2023-11-19T18:48:55;17.30;;;7.22;;
69779;SDS011;57052;55.602;38.096;2023-11-19T18:51:23;17.92;;;7.40;;
69779;SDS011;57052;55.602;38.096;2023-11-19T18:53:49;13.60;;;6.43;;
69779;SDS011;57052;55.602;38.096;2023-11-19T18:56:15;19.90;;;6.40;;
69779;SDS011;57052;55.602;38.096;2023-11-19T18:58:42;20.83;;;9.25;;
69779;SDS011;57052;55.602;38.096;2023-11-19T19:01:07;20.85;;;8.80;;
69779;SDS011;57052;55.602;38.096;2023-11-19T19:03:34;20.25;;;8.73;;
69779;SDS011;57052;55.602;38.096;2023-11-19T19:06:01;19.05;;;7.50;;
69779;SDS011;57052;55.602;38.096;2023-11-19T19:08:30;24.73;;;9.73;;
69779;SDS011;57052;55.602;38.096;2023-11-19T19:10:58;24.50;;;10.23;;
69779;SDS011;57052;55.602;38.096;2023-11-19T19:13:24;23.63;;;9.90;;
69779;SDS011;57052;55.602;38.096;2023-11-19T19:15:50;23.90;;;9.70;;
69779;SDS011;57052;55.602;38.096;2023-11-19T19:18:16;34.47;;;11.23;;
69779;SDS011;57052;55.602;38.096;2023-11-19T19:20:42;24.38;;;9.50;;
69779;SDS011;57052;55.602;38.096;2023-11-19T19:23:09;25.55;;;9.45;;
69779;SDS011;57052;55.602;38.096;2023-11-19T19:25:38;19.63;;;9.05;;
69779;SDS011;57052;55.602;38.096;2023-11-19T19:28:03;18.42;;;8.50;;
69779;SDS011;57052;55.602;38.096;2023-11-19T19:30:31;20.25;;;8.27;;
69779;SDS011;57052;55.602;38.096;2023-11-19T19:32:57;19.38;;;8.65;;
69779;SDS011;57052;55.602;38.096;2023-11-19T19:35:23;22.48;;;7.97;;
69779;SDS011;57052;55.602;38.096;2023-11-19T19:37:54;15.32;;;7.30;;
69779;SDS011;57052;55.602;38.096;2023-11-19T19:40:25;18.52;;;7.07;;
69779;SDS011;57052;55.602;38.096;2023-11-19T19:42:51;13.02;;;6.00;;
69779;SDS011;57052;55.602;38.096;2023-11-19T19:45:17;15.32;;;6.80;;
69779;SDS011;57052;55.602;38.096;2023-11-19T19:47:42;18.00;;;6.47;;
69779;SDS011;57052;55.602;38.096;2023-11-19T19:50:08;13.95;;;5.97;;
69779;SDS011;57052;55.602;38.096;2023-11-19T19:52:38;14.90;;;5.60;;
69779;SDS011;57052;55.602;38.096;2023-11-19T19:55:05;14.88;;;5.57;;
69779;SDS011;57052;55.602;38.096;2023-11-19T19:57:32;13.38;;;6.07;;
69779;SDS011;57052;55.602;38.096;2023-11-19T19:59:58;12.82;;;6.00;;
69779;SDS011;57052;55.602;38.096;2023-11-19T20:02:25;12.23;;;5.68;;
69779;SDS011;57052;55.602;38.096;2023-11-19T20:04:51;10.93;;;5.20;;
69779;SDS011;57052;55.602;38.096;2023-11-19T20:07:17;11.52;;;4.72;;
69779;SDS011;57052;55.602;38.096;2023-11-19T20:09:43;14.70;;;5.20;;
69779;SDS011;57052;55.602;38.096;2023-11-19T20:12:08;11.60;;;4.40;;
69779;SDS011;57052;55.602;38.096;2023-11-19T20:14:34;15.50;;;4.90;;
69779;SDS011;57052;55.602;38.096;2023-11-19T20:17:00;9.00;;;4.30;;
69779;SDS011;57052;55.602;38.096;2023-11-19T20:19:27;15.70;;;4.63;;
69779;SDS011;57052;55.602;38.096;2023-11-19T20:21:52;10.07;;;5.03;;
69779;SDS011;57052;55.602;38.096;2023-11-19T20:24:18;9.35;;;4.45;;
69779;SDS011;57052;55.602;38.096;2023-11-19T20:26:44;10.77;;;4.95;;
69779;SDS011;57052;55.602;38.096;2023-11-19T20:29:10;11.50;;;4.60;;
69779;SDS011;57052;55.602;38.096;2023-11-19T20:31:39;8.23;;;4.40;;
69779;SDS011;57052;55.602;38.096;2023-11-19T20:34:07;12.48;;;4.90;;
69779;SDS011;57052;55.602;38.096;2023-11-19T20:36:32;7.68;;;4.68;;
69779;SDS011;57052;55.602;38.096;2023-11-19T20:38:58;10.43;;;4.57;;
69779;SDS011;57052;55.602;38.096;2023-11-19T20:41:24;10.45;;;5.15;;
69779;SDS011;57052;55.602;38.096;2023-11-19T20:43:50;12.10;;;4.78;;
69779;SDS011;57052;55.602;38.096;2023-11-19T20:46:17;12.10;;;5.60;;
69779;SDS011;57052;55.602;38.096;2023-11-19T20:48:43;12.57;;;6.30;;
69779;SDS011;57052;55.602;38.096;2023-11-19T20:51:09;13.48;;;5.68;;
69779;SDS011;57052;55.602;38.096;2023-11-19T20:53:35;10.75;;;5.28;;
69779;SDS011;57052;55.602;38.096;2023-11-19T20:56:01;13.05;;;5.57;;
69779;SDS011;57052;55.602;38.096;2023-11-19T20:58:28;11.95;;;5.80;;
69779;SDS011;57052;55.602;38.096;2023-11-19T21:00:53;15.15;;;6.50;;
69779;SDS011;57052;55.602;38.096;2023-11-19T21:03:19;16.60;;;7.15;;
69779;SDS011;57052;55.602;38.096;2023-11-19T21:05:45;14.05;;;6.78;;
69779;SDS011;57052;55.602;38.096;2023-11-19T21:08:19;11.63;;;6.15;;
69779;SDS011;57052;55.602;38.096;2023-11-19T21:10:49;17.10;;;7.20;;
69779;SDS011;57052;55.602;38.096;2023-11-19T21:13:16;15.75;;;7.18;;
69779;SDS011;57052;55.602;38.096;2023-11-19T21:15:43;18.13;;;7.55;;
69779;SDS011;57052;55.602;38.096;2023-11-19T21:18:12;17.50;;;7.57;;
69779;SDS011;57052;55.602;38.096;2023-11-19T21:20:38;17.95;;;7.70;;
69779;SDS011;57052;55.602;38.096;2023-11-19T21:23:07;16.65;;;7.20;;
69779;SDS011;57052;55.602;38.096;2023-11-19T21:25:33;21.17;;;7.22;;
69779;SDS011;57052;55.602;38.096;2023-11-19T21:27:59;17.92;;;7.70;;
69779;SDS011;57052;55.602;38.096;2023-11-19T21:30:24;21.80;;;8.00;;
69779;SDS011;57052;55.602;38.096;2023-11-19T21:32:50;20.38;;;7.93;;
69779;SDS011;57052;55.602;38.096;2023-11-19T21:35:17;16.25;;;7.38;;
69779;SDS011;57052;55.602;38.096;2023-11-19T21:37:43;18.25;;;7.60;;
69779;SDS011;57052;55.602;38.096;2023-11-19T21:40:09;19.00;;;7.78;;
69779;SDS011;57052;55.602;38.096;2023-11-19T21:42:35;20.83;;;8.50;;
69779;SDS011;57052;55.602;38.096;2023-11-19T21:45:02;22.05;;;7.97;;
69779;SDS011;57052;55.602;38.096;2023-11-19T21:47:28;24.85;;;9.02;;
69779;SDS011;57052;55.602;38.096;2023-11-19T21:49:54;19.80;;;8.35;;
69779;SDS011;57052;55.602;38.096;2023-11-19T21:52:20;19.00;;;7.97;;
69779;SDS011;57052;55.602;38.096;2023-11-19T21:54:46;24.90;;;9.45;;
69779;SDS011;57052;55.602;38.096;2023-11-19T21:57:11;23.90;;;9.30;;
69779;SDS011;57052;55.602;38.096;2023-11-19T21:59:37;23.95;;;9.32;;
69779;SDS011;57052;55.602;38.096;2023-11-19T22:02:05;21.35;;;8.98;;
69779;SDS011;57052;55.602;38.096;2023-11-19T22:04:34;21.17;;;8.38;;
69779;SDS011;57052;55.602;38.096;2023-11-19T22:07:00;24.20;;;9.50;;
69779;SDS011;57052;55.602;38.096;2023-11-19T22:09:26;21.00;;;9.05;;
69779;SDS011;57052;55.602;38.096;2023-11-19T22:11:52;25.83;;;9.55;;
69779;SDS011;57052;55.602;38.096;2023-11-19T22:14:17;20.55;;;8.80;;
69779;SDS011;57052;55.602;38.096;2023-11-19T22:16:43;16.80;;;7.68;;
69779;SDS011;57052;55.602;38.096;2023-11-19T22:19:10;15.48;;;7.07;;
69779;SDS011;57052;55.602;38.096;2023-11-19T22:21:36;15.90;;;7.18;;
69779;SDS011;57052;55.602;38.096;2023-11-19T22:24:03;14.18;;;7.53;;
69779;SDS011;57052;55.602;38.096;2023-11-19T22:26:29;18.33;;;7.22;;
69779;SDS011;57052;55.602;38.096;2023-11-19T22:28:54;16.30;;;7.50;;
69779;SDS011;57052;55.602;38.096;2023-11-19T22:31:21;19.25;;;7.07;;
69779;SDS011;57052;55.602;38.096;2023-11-19T22:33:47;19.38;;;7.43;;
69779;SDS011;57052;55.602;38.096;2023-11-19T22:36:14;15.05;;;7.32;;
69779;SDS011;57052;55.602;38.096;2023-11-19T22:38:40;17.08;;;7.07;;
69779;SDS011;57052;55.602;38.096;2023-11-19T22:41:05;16.27;;;6.85;;
69779;SDS011;57052;55.602;38.096;2023-11-19T22:43:31;18.48;;;6.75;;
69779;SDS011;57052;55.602;38.096;2023-11-19T22:45:58;13.88;;;6.32;;
69779;SDS011;57052;55.602;38.096;2023-11-19T22:48:24;15.68;;;6.38;;
69779;SDS011;57052;55.602;38.096;2023-11-19T22:50:49;13.02;;;6.20;;
69779;SDS011;57052;55.602;38.096;2023-11-19T22:53:15;12.93;;;6.15;;
69779;SDS011;57052;55.602;38.096;2023-11-19T22:55:41;14.55;;;6.00;;
69779;SDS011;57052;55.602;38.096;2023-11-19T22:58:07;13.65;;;5.53;;
69779;SDS011;57052;55.602;38.096;2023-11-19T23:00:33;13.95;;;4.97;;
69779;SDS011;57052;55.602;38.096;2023-11-19T23:03:01;13.50;;;6.30;;
69779;SDS011;57052;55.602;38.096;2023-11-19T23:05:28;14.73;;;5.80;;
69779;SDS011;57052;55.602;38.096;2023-11-19T23:07:56;19.00;;;6.18;;
69779;SDS011;57052;55.602;38.096;2023-11-19T23:10:23;14.45;;;6.20;;
69779;SDS011;57052;55.602;38.096;2023-11-19T23:12:48;13.10;;;5.82;;
69779;SDS011;57052;55.602;38.096;2023-11-19T23:15:14;13.57;;;6.43;;
69779;SDS011;57052;55.602;38.096;2023-11-19T23:17:40;10.95;;;5.70;;
69779;SDS011;57052;55.602;38.096;2023-11-19T23:20:07;16.20;;;7.40;;
69779;SDS011;57052;55.602;38.096;2023-11-19T23:22:45;17.10;;;6.80;;
69779;SDS011;57052;55.602;38.096;2023-11-19T23:25:11;12.48;;;6.28;;
69779;SDS011;57052;55.602;38.096;2023-11-19T23:27:37;17.52;;;7.00;;
69779;SDS011;57052;55.602;38.096;2023-11-19T23:30:03;13.27;;;6.03;;
69779;SDS011;57052;55.602;38.096;2023-11-19T23:32:30;14.30;;;6.88;;
69779;SDS011;57052;55.602;38.096;2023-11-19T23:34:56;16.77;;;6.43;;
69779;SDS011;57052;55.602;38.096;2023-11-19T23:37:22;14.52;;;6.55;;
69779;SDS011;57052;55.602;38.096;2023-11-19T23:39:49;12.90;;;5.90;;
69779;SDS011;57052;55.602;38.096;2023-11-19T23:42:15;13.88;;;5.63;;
69779;SDS011;57052;55.602;38.096;2023-11-19T23:44:42;12.77;;;6.15;;
69779;SDS011;57052;55.602;38.096;2023-11-19T23:47:07;15.00;;;6.13;;
69779;SDS011;57052;55.602;38.096;2023-11-19T23:49:33;16.17;;;6.60;;
69779;SDS011;57052;55.602;38.096;2023-11-19T23:51:59;11.95;;;6.10;;
69779;SDS011;57052;55.602;38.096;2023-11-19T23:54:27;18.20;;;6.30;;
69779;SDS011;57052;55.602;38.096;2023-11-19T23:56:53;14.90;;;6.35;;
69779;SDS011;57052;55.602;38.096;2023-11-19T23:59:19;14.60;;;6.35;;
